Time;durP1;ratioP1;P1;durP2;ratioP2;P2;SDS_P1;SDS_P2;PMS_P1;PMS_P2;Temp;Humidity;BMP_temperature;BMP_pressure;BME280_temperature;BME280_humidity;BME280_pressure;Samples;Min_cycle;Max_cycle;Signal;HPM_P1;HPM_P2
2023/08/19 00:01:33;;;;;;;14.88;13.10;;;;;;;;;;5001237;28;20041;-90
2023/08/19 00:04:20;;;;;;;14.13;12.63;;;;;;;;;;5020483;28;20042;-91
2023/08/19 00:07:09;;;;;;;15.07;12.65;;;;;;;;;;5023645;28;20045;-90
2023/08/19 00:09:48;;;;;;;14.50;11.90;;;;;;;;;;5017152;28;20026;-89
2023/08/19 00:12:15;;;;;;;14.50;12.30;;;;;;;;;;5006034;22;20054;-82
2023/08/19 00:14:40;;;;;;;14.70;12.27;;;;;;;;;;5008228;28;20044;-82
2023/08/19 00:17:06;;;;;;;12.38;11.02;;;;;;;;;;5012171;28;20053;-82
2023/08/19 00:19:31;;;;;;;15.02;12.32;;;;;;;;;;5014041;28;20041;-82
2023/08/19 00:21:57;;;;;;;14.50;11.88;;;;;;;;;;5025939;28;20029;-82
2023/08/19 00:24:22;;;;;;;14.07;11.52;;;;;;;;;;5015144;28;20473;-82
2023/08/19 00:26:47;;;;;;;11.27;10.07;;;;;;;;;;5003760;28;20045;-82
2023/08/19 00:29:13;;;;;;;12.80;11.32;;;;;;;;;;5004145;28;20038;-82
2023/08/19 00:31:39;;;;;;;14.77;12.77;;;;;;;;;;5008144;28;20022;-81
2023/08/19 00:34:05;;;;;;;14.30;12.45;;;;;;;;;;5007933;28;20052;-82
2023/08/19 00:36:31;;;;;;;13.93;11.07;;;;;;;;;;4995882;28;20121;-80
2023/08/19 00:38:56;;;;;;;15.13;11.50;;;;;;;;;;4994929;28;20041;-80
2023/08/19 00:41:24;;;;;;;13.52;11.95;;;;;;;;;;4991046;28;20022;-82
2023/08/19 00:43:50;;;;;;;12.20;10.32;;;;;;;;;;4989788;28;20084;-82
2023/08/19 00:46:15;;;;;;;13.50;11.73;;;;;;;;;;4992261;28;20034;-82
2023/08/19 00:48:41;;;;;;;13.38;11.43;;;;;;;;;;4994073;28;20045;-82
2023/08/19 00:51:07;;;;;;;15.80;12.20;;;;;;;;;;4996510;28;20061;-82
2023/08/19 00:53:34;;;;;;;14.82;12.68;;;;;;;;;;4995360;28;20026;-82
2023/08/19 00:55:59;;;;;;;14.98;12.82;;;;;;;;;;4989059;28;20058;-82
2023/08/19 00:58:25;;;;;;;14.93;11.95;;;;;;;;;;4979833;28;20022;-82
2023/08/19 01:00:51;;;;;;;12.68;10.52;;;;;;;;;;4978276;28;20022;-82
2023/08/19 01:03:18;;;;;;;12.77;11.30;;;;;;;;;;4975690;28;20395;-82
2023/08/19 01:06:19;;;;;;;14.38;12.00;;;;;;;;;;4975025;28;20035;-82
2023/08/19 01:08:59;;;;;;;13.18;11.38;;;;;;;;;;4932994;28;20071;-82
2023/08/19 01:11:46;;;;;;;14.48;12.25;;;;;;;;;;4970101;28;20502;-83
2023/08/19 01:14:30;;;;;;;14.20;11.50;;;;;;;;;;4990806;28;20030;-82
2023/08/19 01:16:56;;;;;;;14.02;11.27;;;;;;;;;;4993826;28;20137;-82
2023/08/19 01:19:32;;;;;;;14.77;11.98;;;;;;;;;;4991273;28;20057;-82
2023/08/19 01:22:02;;;;;;;14.48;11.88;;;;;;;;;;4984962;28;20054;-82
2023/08/19 01:24:37;;;;;;;13.88;11.88;;;;;;;;;;4993341;28;20030;-82
2023/08/19 01:27:21;;;;;;;13.20;11.40;;;;;;;;;;4993532;28;20026;-82
2023/08/19 01:29:47;;;;;;;15.85;11.80;;;;;;;;;;4996766;28;20061;-82
2023/08/19 01:32:13;;;;;;;14.40;12.23;;;;;;;;;;4986644;28;20030;-82
2023/08/19 01:34:39;;;;;;;16.23;12.77;;;;;;;;;;4991584;28;20536;-82
2023/08/19 01:37:11;;;;;;;15.70;11.60;;;;;;;;;;4987599;28;20030;-82
2023/08/19 01:39:39;;;;;;;13.95;11.10;;;;;;;;;;4990204;28;20041;-82
2023/08/19 01:49:48;;;;;;;13.52;11.38;;;;;;;;;;5028807;28;20042;-89
2023/08/19 02:55:42;;;;;;;13.85;10.60;;;;;;;;;;5032712;28;20049;-86
2023/08/19 02:58:08;;;;;;;15.18;12.30;;;;;;;;;;5026552;28;20485;-86
2023/08/19 03:00:36;;;;;;;13.13;11.73;;;;;;;;;;5034202;28;20030;-86
2023/08/19 03:03:03;;;;;;;13.77;11.82;;;;;;;;;;5029074;28;20030;-80
2023/08/19 03:05:28;;;;;;;17.10;12.05;;;;;;;;;;5025469;28;20114;-80
2023/08/19 03:07:53;;;;;;;12.90;11.32;;;;;;;;;;5033839;28;20067;-81
2023/08/19 03:10:19;;;;;;;13.88;11.15;;;;;;;;;;5034139;28;20527;-81
2023/08/19 03:12:44;;;;;;;12.70;10.30;;;;;;;;;;5031178;28;20021;-81
2023/08/19 03:15:10;;;;;;;12.18;10.60;;;;;;;;;;5032906;28;20036;-80
2023/08/19 03:17:35;;;;;;;15.48;11.20;;;;;;;;;;5026510;28;20022;-82
2023/08/19 03:20:00;;;;;;;12.27;10.95;;;;;;;;;;5031386;28;20086;-80
2023/08/19 03:22:26;;;;;;;14.68;11.35;;;;;;;;;;5033131;28;20112;-80
2023/08/19 03:24:52;;;;;;;13.02;11.02;;;;;;;;;;5030098;28;20140;-82
2023/08/19 03:27:17;;;;;;;16.05;11.25;;;;;;;;;;5029561;28;20025;-80
2023/08/19 03:29:43;;;;;;;12.85;10.95;;;;;;;;;;5029502;28;20037;-80
2023/08/19 03:32:08;;;;;;;11.95;10.75;;;;;;;;;;5023070;28;20440;-80
2023/08/19 03:34:33;;;;;;;13.77;11.48;;;;;;;;;;5012885;28;20026;-80
2023/08/19 03:36:59;;;;;;;13.55;10.40;;;;;;;;;;5010326;28;20025;-81
2023/08/19 03:39:25;;;;;;;13.73;10.82;;;;;;;;;;5014816;28;20112;-82
2023/08/19 03:41:50;;;;;;;13.25;11.23;;;;;;;;;;5014632;28;20018;-81
2023/08/19 03:44:15;;;;;;;13.10;10.80;;;;;;;;;;5011490;28;20117;-81
2023/08/19 03:46:41;;;;;;;13.38;10.05;;;;;;;;;;5013154;28;20042;-81
2023/08/19 03:49:07;;;;;;;12.90;11.00;;;;;;;;;;5028429;28;20130;-80
2023/08/19 03:51:32;;;;;;;17.75;10.98;;;;;;;;;;5008816;28;20109;-81
2023/08/19 03:53:57;;;;;;;12.40;10.43;;;;;;;;;;5009232;28;20466;-80
2023/08/19 03:56:23;;;;;;;12.95;10.55;;;;;;;;;;5012203;28;20030;-81
2023/08/19 03:58:48;;;;;;;12.73;11.13;;;;;;;;;;5014616;28;20022;-81
2023/08/19 04:01:14;;;;;;;11.43;10.23;;;;;;;;;;5016201;28;20029;-79
2023/08/19 04:03:39;;;;;;;11.85;10.38;;;;;;;;;;5011578;28;20540;-86
2023/08/19 04:06:05;;;;;;;14.23;10.55;;;;;;;;;;5014269;28;20038;-86
2023/08/19 04:08:30;;;;;;;11.27;9.73;;;;;;;;;;5033433;28;20076;-86
2023/08/19 04:11:06;;;;;;;12.75;10.20;;;;;;;;;;5008805;28;20404;-85
2023/08/19 04:13:32;;;;;;;13.98;10.00;;;;;;;;;;5010406;28;20022;-86
2023/08/19 04:16:15;;;;;;;14.73;9.88;;;;;;;;;;5005429;28;20030;-86
2023/08/19 04:18:40;;;;;;;12.85;9.13;;;;;;;;;;5012808;28;20025;-86
2023/08/19 04:21:07;;;;;;;11.15;9.32;;;;;;;;;;5011056;28;20454;-86
2023/08/19 04:23:32;;;;;;;12.40;9.23;;;;;;;;;;5019058;28;20666;-86
2023/08/19 04:25:58;;;;;;;10.75;9.45;;;;;;;;;;5034378;28;20088;-85
2023/08/19 04:28:25;;;;;;;11.75;9.20;;;;;;;;;;5011156;28;20057;-86
2023/08/19 04:30:50;;;;;;;12.15;9.40;;;;;;;;;;5007605;28;20448;-86
2023/08/19 04:33:16;;;;;;;12.90;9.30;;;;;;;;;;5015049;28;20124;-86
2023/08/19 04:35:42;;;;;;;10.95;9.07;;;;;;;;;;5013418;28;20022;-86
2023/08/19 04:38:07;;;;;;;9.82;8.82;;;;;;;;;;5016371;28;20038;-85
2023/08/19 04:40:32;;;;;;;13.02;8.57;;;;;;;;;;5007365;28;20026;-85
2023/08/19 04:42:58;;;;;;;12.65;8.82;;;;;;;;;;5005554;28;20030;-86
2023/08/19 04:45:24;;;;;;;14.13;8.50;;;;;;;;;;5004558;28;20034;-85
2023/08/19 04:47:50;;;;;;;11.95;8.65;;;;;;;;;;5007683;28;20079;-85
2023/08/19 04:50:16;;;;;;;10.88;8.60;;;;;;;;;;5016589;28;20064;-86
2023/08/19 04:52:42;;;;;;;11.02;8.52;;;;;;;;;;5008218;28;20100;-86
2023/08/19 04:55:08;;;;;;;11.57;8.57;;;;;;;;;;5011495;28;20869;-85
2023/08/19 04:57:33;;;;;;;10.85;8.20;;;;;;;;;;5011213;28;20071;-85
2023/08/19 04:59:59;;;;;;;9.75;8.15;;;;;;;;;;5010266;28;20021;-85
2023/08/19 05:02:24;;;;;;;12.52;8.70;;;;;;;;;;5008440;28;20022;-86
2023/08/19 05:04:50;;;;;;;11.02;7.53;;;;;;;;;;5023680;28;20562;-86
2023/08/19 05:07:15;;;;;;;11.80;8.13;;;;;;;;;;5002693;28;20022;-85
2023/08/19 05:09:40;;;;;;;10.93;8.30;;;;;;;;;;5012285;28;20408;-85
2023/08/19 05:12:06;;;;;;;13.30;8.63;;;;;;;;;;5005180;28;20031;-81
2023/08/19 05:14:32;;;;;;;9.52;8.02;;;;;;;;;;4999024;28;20388;-81
2023/08/19 05:16:57;;;;;;;10.25;8.18;;;;;;;;;;4995280;28;20061;-83
2023/08/19 05:19:24;;;;;;;11.45;8.35;;;;;;;;;;4997625;28;20032;-80
2023/08/19 05:21:50;;;;;;;11.15;8.35;;;;;;;;;;4994655;28;20499;-82
2023/08/19 05:24:15;;;;;;;10.30;8.20;;;;;;;;;;4995631;28;20059;-82
2023/08/19 05:26:44;;;;;;;12.55;8.43;;;;;;;;;;4995242;28;20044;-83
2023/08/19 05:29:10;;;;;;;11.50;8.23;;;;;;;;;;4998694;28;20037;-82
2023/08/19 05:31:36;;;;;;;11.65;8.50;;;;;;;;;;5009435;28;20397;-82
2023/08/19 05:34:01;;;;;;;9.15;7.72;;;;;;;;;;5007768;28;20042;-82
2023/08/19 05:36:27;;;;;;;12.40;7.93;;;;;;;;;;5003896;28;20026;-83
2023/08/19 05:38:52;;;;;;;9.93;7.75;;;;;;;;;;5008076;28;20109;-82
2023/08/19 05:41:18;;;;;;;10.05;7.53;;;;;;;;;;5012583;28;20024;-82
2023/08/19 05:43:43;;;;;;;10.80;7.47;;;;;;;;;;5012530;28;20401;-82
2023/08/19 05:46:09;;;;;;;9.07;7.13;;;;;;;;;;5009810;28;20034;-82
2023/08/19 05:48:35;;;;;;;8.40;7.30;;;;;;;;;;5010334;28;20025;-83
2023/08/19 05:51:01;;;;;;;10.48;6.78;;;;;;;;;;5015438;28;20060;-82
2023/08/19 05:53:26;;;;;;;10.40;7.38;;;;;;;;;;5007267;28;20105;-82
2023/08/19 05:55:52;;;;;;;8.75;6.78;;;;;;;;;;5018626;28;20246;-82
2023/08/19 05:58:18;;;;;;;12.35;7.57;;;;;;;;;;5007052;28;20040;-82
2023/08/19 06:00:43;;;;;;;11.65;7.75;;;;;;;;;;5008573;28;20501;-82
2023/08/19 06:03:09;;;;;;;11.85;6.72;;;;;;;;;;5012105;28;20029;-82
2023/08/19 06:05:35;;;;;;;10.93;6.95;;;;;;;;;;5011591;28;20083;-81
2023/08/19 06:08:01;;;;;;;10.60;6.53;;;;;;;;;;5008990;28;20034;-82
2023/08/19 06:10:26;;;;;;;10.75;6.15;;;;;;;;;;4999438;28;20037;-82
2023/08/19 06:12:52;;;;;;;7.65;5.90;;;;;;;;;;5010011;28;20033;-82
2023/08/19 06:15:17;;;;;;;7.57;6.05;;;;;;;;;;5021301;28;20394;-82
2023/08/19 06:17:43;;;;;;;9.25;5.85;;;;;;;;;;5003120;28;20061;-82
2023/08/19 06:20:08;;;;;;;9.35;6.35;;;;;;;;;;5000363;28;20040;-82
2023/08/19 06:22:34;;;;;;;8.50;5.88;;;;;;;;;;5021346;28;20153;-81
2023/08/19 06:25:00;;;;;;;14.15;6.65;;;;;;;;;;5005603;28;20033;-81
2023/08/19 06:27:25;;;;;;;7.93;5.63;;;;;;;;;;5020908;28;20033;-80
2023/08/19 06:29:52;;;;;;;7.97;6.07;;;;;;;;;;5009975;28;20029;-81
2023/08/19 06:32:18;;;;;;;8.20;6.15;;;;;;;;;;5002137;28;20114;-84
2023/08/19 06:34:43;;;;;;;11.32;6.28;;;;;;;;;;5039340;28;20041;-85
2023/08/19 06:37:11;;;;;;;9.35;6.70;;;;;;;;;;5014589;28;20033;-85
2023/08/19 06:39:37;;;;;;;7.82;6.22;;;;;;;;;;5009424;28;20119;-85
2023/08/19 06:42:05;;;;;;;10.70;6.60;;;;;;;;;;5006658;28;20092;-86
2023/08/19 06:44:33;;;;;;;9.82;6.57;;;;;;;;;;5005464;28;20463;-86
2023/08/19 06:47:00;;;;;;;8.63;6.97;;;;;;;;;;5015201;28;20034;-86
2023/08/19 06:49:26;;;;;;;10.77;6.82;;;;;;;;;;5006200;28;20481;-86
2023/08/19 06:51:52;;;;;;;11.02;6.53;;;;;;;;;;5012677;28;20473;-86
2023/08/19 06:54:18;;;;;;;10.93;7.40;;;;;;;;;;4976127;28;1121408;-86
2023/08/19 06:56:53;;;;;;;12.85;7.80;;;;;;;;;;5013689;28;20283;-86
2023/08/19 06:59:31;;;;;;;10.80;7.30;;;;;;;;;;5027023;28;20084;-85
2023/08/19 07:02:01;;;;;;;13.75;7.10;;;;;;;;;;5013285;28;20563;-86
2023/08/19 07:04:27;;;;;;;9.98;7.50;;;;;;;;;;5016947;28;20117;-85
2023/08/19 07:06:57;;;;;;;10.73;7.30;;;;;;;;;;5009315;28;20531;-86
2023/08/19 07:09:23;;;;;;;10.25;7.57;;;;;;;;;;5012980;28;20025;-87
2023/08/19 07:11:58;;;;;;;10.15;7.18;;;;;;;;;;5010991;28;20030;-86
2023/08/19 07:14:25;;;;;;;11.35;7.38;;;;;;;;;;5025103;28;20034;-86
2023/08/19 07:16:52;;;;;;;16.08;8.35;;;;;;;;;;5016730;28;20026;-86
2023/08/19 07:19:25;;;;;;;16.02;8.25;;;;;;;;;;5010512;28;20121;-86
2023/08/19 07:21:52;;;;;;;11.73;7.40;;;;;;;;;;5021113;28;20026;-86
2023/08/19 07:24:17;;;;;;;12.68;7.80;;;;;;;;;;5025307;28;20492;-85
2023/08/19 07:26:43;;;;;;;11.32;7.55;;;;;;;;;;5015969;28;20030;-84
2023/08/19 07:29:09;;;;;;;11.77;7.88;;;;;;;;;;5016893;28;20030;-86
2023/08/19 07:31:34;;;;;;;9.07;7.53;;;;;;;;;;5009176;28;20052;-81
2023/08/19 07:34:00;;;;;;;10.45;7.57;;;;;;;;;;5015880;28;20464;-81
2023/08/19 07:36:26;;;;;;;10.30;7.28;;;;;;;;;;5012503;28;20036;-83
2023/08/19 07:38:52;;;;;;;10.57;7.20;;;;;;;;;;5017500;28;20528;-82
2023/08/19 07:41:21;;;;;;;10.38;7.43;;;;;;;;;;5016403;28;20160;-81
2023/08/19 07:43:47;;;;;;;8.13;6.82;;;;;;;;;;5016262;28;20034;-83
2023/08/19 07:46:17;;;;;;;12.68;7.15;;;;;;;;;;5011956;28;20033;-81
2023/08/19 07:48:46;;;;;;;11.60;6.80;;;;;;;;;;5013089;28;20029;-81
2023/08/19 07:51:12;;;;;;;12.15;7.25;;;;;;;;;;5008374;28;20045;-82
2023/08/19 07:53:38;;;;;;;9.35;6.60;;;;;;;;;;5003616;28;20038;-82
2023/08/19 07:56:06;;;;;;;8.35;6.82;;;;;;;;;;5011024;28;20504;-81
2023/08/19 07:58:33;;;;;;;8.20;6.65;;;;;;;;;;5001240;28;20104;-81
2023/08/19 08:00:59;;;;;;;10.65;7.20;;;;;;;;;;4999530;28;20033;-83
2023/08/19 08:03:24;;;;;;;9.20;7.00;;;;;;;;;;5003086;28;20086;-81
2023/08/19 08:05:50;;;;;;;10.00;6.97;;;;;;;;;;5002944;28;20030;-81
2023/08/19 08:08:15;;;;;;;8.50;6.72;;;;;;;;;;5001020;28;20041;-82
2023/08/19 08:10:41;;;;;;;8.43;6.18;;;;;;;;;;5000907;28;20603;-82
2023/08/19 08:13:07;;;;;;;11.75;6.88;;;;;;;;;;5022685;28;20034;-82
2023/08/19 08:15:32;;;;;;;10.32;6.82;;;;;;;;;;5005151;28;20033;-82
2023/08/19 08:17:58;;;;;;;10.73;6.68;;;;;;;;;;5003410;28;20029;-82
2023/08/19 08:20:23;;;;;;;9.48;6.43;;;;;;;;;;5006128;28;20030;-82
2023/08/19 08:22:49;;;;;;;8.82;6.10;;;;;;;;;;5013258;28;20028;-81
2023/08/19 08:25:14;;;;;;;8.60;6.47;;;;;;;;;;5005495;28;20026;-82
2023/08/19 08:27:40;;;;;;;10.60;6.53;;;;;;;;;;5016154;28;20432;-82
2023/08/19 08:30:06;;;;;;;9.32;6.40;;;;;;;;;;5009560;28;20075;-81
2023/08/19 08:32:32;;;;;;;9.70;6.32;;;;;;;;;;5014895;28;20033;-81
2023/08/19 08:34:57;;;;;;;7.97;6.63;;;;;;;;;;5014416;28;20477;-81
2023/08/19 08:37:22;;;;;;;8.52;6.30;;;;;;;;;;5007448;28;20025;-84
2023/08/19 08:39:48;;;;;;;9.73;6.85;;;;;;;;;;5011626;28;20619;-82
2023/08/19 08:42:15;;;;;;;8.07;6.25;;;;;;;;;;5008124;28;20026;-83
2023/08/19 08:44:44;;;;;;;12.77;6.80;;;;;;;;;;5011085;28;20029;-83
2023/08/19 08:47:10;;;;;;;9.50;6.80;;;;;;;;;;5007067;28;20505;-83
2023/08/19 08:49:37;;;;;;;13.75;7.75;;;;;;;;;;5011120;28;20077;-83
2023/08/19 08:52:03;;;;;;;8.60;6.97;;;;;;;;;;5011229;28;20029;-90
2023/08/19 08:54:35;;;;;;;8.13;6.90;;;;;;;;;;5032567;28;20038;-88
2023/08/19 08:57:02;;;;;;;15.05;7.35;;;;;;;;;;5029033;28;20041;-89
2023/08/19 08:59:28;;;;;;;9.13;6.90;;;;;;;;;;5029131;28;20038;-87
2023/08/19 09:01:54;;;;;;;10.60;7.20;;;;;;;;;;5020462;28;20048;-89
2023/08/19 09:04:21;;;;;;;9.48;7.43;;;;;;;;;;5022387;28;20034;-90
2023/08/19 09:06:48;;;;;;;9.73;7.63;;;;;;;;;;5043101;28;20022;-86
2023/08/19 09:09:14;;;;;;;9.93;7.60;;;;;;;;;;5030603;28;20022;-86
2023/08/19 09:11:44;;;;;;;11.85;7.88;;;;;;;;;;5014005;28;20045;-88
2023/08/19 09:14:24;;;;;;;10.10;7.97;;;;;;;;;;5017175;28;20409;-86
2023/08/19 09:16:49;;;;;;;10.43;8.13;;;;;;;;;;5042942;28;20033;-88
2023/08/19 09:19:15;;;;;;;12.63;8.23;;;;;;;;;;5026888;28;20033;-89
2023/08/19 09:21:41;;;;;;;11.35;8.10;;;;;;;;;;5013674;28;20104;-87
2023/08/19 09:24:06;;;;;;;11.77;8.60;;;;;;;;;;5030548;28;20033;-90
2023/08/19 09:26:32;;;;;;;11.27;8.30;;;;;;;;;;5029754;28;20103;-89
2023/08/19 09:28:58;;;;;;;10.50;8.20;;;;;;;;;;5029082;28;20049;-90
2023/08/19 09:31:24;;;;;;;12.80;9.05;;;;;;;;;;5027453;28;20053;-88
2023/08/19 09:33:53;;;;;;;11.43;8.85;;;;;;;;;;5028279;28;20029;-89
2023/08/19 09:36:28;;;;;;;11.85;8.50;;;;;;;;;;5031966;28;20104;-87
2023/08/19 09:38:59;;;;;;;14.98;9.20;;;;;;;;;;5038450;28;20032;-88
2023/08/19 09:41:29;;;;;;;13.73;9.20;;;;;;;;;;5030454;28;20046;-84
2023/08/19 09:43:59;;;;;;;13.63;9.95;;;;;;;;;;5026819;28;20056;-87
2023/08/19 09:46:32;;;;;;;13.35;9.77;;;;;;;;;;5018522;28;20025;-88
2023/08/19 09:48:58;;;;;;;11.98;9.45;;;;;;;;;;5013428;28;20022;-86
2023/08/19 09:51:25;;;;;;;13.98;10.43;;;;;;;;;;5022786;28;20516;-81
2023/08/19 09:53:50;;;;;;;15.57;10.80;;;;;;;;;;5018499;28;21597;-87
2023/08/19 09:56:23;;;;;;;15.73;10.23;;;;;;;;;;5014174;28;20049;-86
2023/08/19 09:58:49;;;;;;;14.43;11.15;;;;;;;;;;5010437;28;20543;-89
2023/08/19 10:01:15;;;;;;;16.50;11.27;;;;;;;;;;5006006;28;20018;-88
2023/08/19 10:03:41;;;;;;;15.25;11.07;;;;;;;;;;5002551;28;20024;-81
2023/08/19 10:06:07;;;;;;;15.20;11.50;;;;;;;;;;5012265;28;20029;-81
2023/08/19 10:08:34;;;;;;;16.10;12.45;;;;;;;;;;5010470;28;20424;-81
2023/08/19 10:11:00;;;;;;;20.00;13.52;;;;;;;;;;5010983;28;20113;-82
2023/08/19 10:13:26;;;;;;;22.15;15.20;;;;;;;;;;5010417;28;20112;-80
2023/08/19 10:15:57;;;;;;;19.83;14.82;;;;;;;;;;5012992;28;20062;-81
2023/08/19 10:18:29;;;;;;;16.15;13.25;;;;;;;;;;5010754;28;20036;-81
2023/08/19 10:20:58;;;;;;;17.90;12.52;;;;;;;;;;5010282;28;20036;-81
2023/08/19 10:23:26;;;;;;;19.73;13.48;;;;;;;;;;5005626;28;20044;-81
2023/08/19 10:25:51;;;;;;;17.92;13.18;;;;;;;;;;5005755;28;20033;-82
2023/08/19 10:28:27;;;;;;;16.13;12.48;;;;;;;;;;5008657;28;20026;-82
2023/08/19 10:31:26;;;;;;;14.13;11.00;;;;;;;;;;5004159;28;20402;-81
2023/08/19 10:33:53;;;;;;;15.23;11.57;;;;;;;;;;5005260;28;20075;-81
2023/08/19 10:36:19;;;;;;;15.20;12.73;;;;;;;;;;5015501;28;20117;-82
2023/08/19 10:39:05;;;;;;;17.27;11.48;;;;;;;;;;5010535;28;21018;-81
2023/08/19 10:41:33;;;;;;;15.55;11.68;;;;;;;;;;5007842;28;20033;-82
2023/08/19 10:44:00;;;;;;;16.60;11.93;;;;;;;;;;5008884;28;20045;-81
2023/08/19 10:46:40;;;;;;;14.93;11.57;;;;;;;;;;5007657;28;20060;-82
2023/08/19 10:49:27;;;;;;;14.77;10.43;;;;;;;;;;5013398;28;20029;-80
2023/08/19 10:52:01;;;;;;;13.63;9.68;;;;;;;;;;5004229;28;20045;-81
2023/08/19 10:54:29;;;;;;;13.75;9.23;;;;;;;;;;5022135;28;20033;-81
2023/08/19 10:57:08;;;;;;;9.25;7.43;;;;;;;;;;5008570;28;20445;-81
2023/08/19 10:59:35;;;;;;;11.48;6.00;;;;;;;;;;5021856;28;20040;-81
2023/08/19 11:02:01;;;;;;;6.82;5.35;;;;;;;;;;5008899;28;20084;-86
2023/08/19 11:04:26;;;;;;;10.30;5.65;;;;;;;;;;5013250;28;20432;-86
2023/08/19 11:06:53;;;;;;;9.18;5.82;;;;;;;;;;4998394;28;20030;-88
2023/08/19 11:09:22;;;;;;;7.53;5.60;;;;;;;;;;5030885;28;20420;-88
2023/08/19 11:11:48;;;;;;;7.43;5.40;;;;;;;;;;5002368;28;20160;-82
2023/08/19 11:14:17;;;;;;;8.13;5.05;;;;;;;;;;5004823;28;20116;-82
2023/08/19 11:16:47;;;;;;;7.68;5.20;;;;;;;;;;5005064;28;20117;-82
2023/08/19 11:19:13;;;;;;;7.35;5.03;;;;;;;;;;5006229;28;20045;-83
2023/08/19 11:21:45;;;;;;;7.40;4.57;;;;;;;;;;5001606;28;20019;-82
2023/08/19 11:24:11;;;;;;;7.53;5.57;;;;;;;;;;5001436;28;20737;-81
2023/08/19 11:26:47;;;;;;;6.53;4.93;;;;;;;;;;4999503;28;20097;-82
2023/08/19 11:29:13;;;;;;;7.13;5.15;;;;;;;;;;5021065;28;20476;-82
2023/08/19 11:31:40;;;;;;;7.93;5.40;;;;;;;;;;5017601;28;20046;-82
2023/08/19 11:34:13;;;;;;;10.10;6.38;;;;;;;;;;5013401;28;20029;-83
2023/08/19 11:36:40;;;;;;;11.05;7.65;;;;;;;;;;5016448;28;20068;-82
2023/08/19 11:39:09;;;;;;;11.73;7.90;;;;;;;;;;5013547;28;20034;-82
2023/08/19 11:41:35;;;;;;;12.13;7.38;;;;;;;;;;5009636;28;20075;-81
2023/08/19 11:44:03;;;;;;;12.13;7.57;;;;;;;;;;5008311;28;20436;-82
2023/08/19 11:46:32;;;;;;;13.50;7.68;;;;;;;;;;5009318;28;20087;-81
2023/08/19 11:49:01;;;;;;;12.27;8.75;;;;;;;;;;5007034;28;20030;-83
2023/08/19 11:51:27;;;;;;;13.10;8.85;;;;;;;;;;5009464;28;20049;-82
2023/08/19 11:53:54;;;;;;;12.05;9.30;;;;;;;;;;5010941;28;20777;-82
2023/08/19 11:56:22;;;;;;;15.68;11.57;;;;;;;;;;5011307;28;20030;-82
2023/08/19 11:58:50;;;;;;;14.77;10.75;;;;;;;;;;5014945;28;20121;-80
2023/08/19 12:01:20;;;;;;;15.25;10.20;;;;;;;;;;5010069;28;20033;-81
2023/08/19 12:03:47;;;;;;;15.85;10.15;;;;;;;;;;5020004;28;20410;-81
2023/08/19 12:06:13;;;;;;;14.93;9.43;;;;;;;;;;5011923;28;20500;-79
2023/08/19 12:08:47;;;;;;;11.68;7.03;;;;;;;;;;5007993;28;20025;-80
2023/08/19 12:11:15;;;;;;;9.02;5.35;;;;;;;;;;5014958;28;20029;-79
2023/08/19 12:13:40;;;;;;;6.45;4.18;;;;;;;;;;5010506;28;20022;-81
2023/08/19 12:16:07;;;;;;;9.75;4.47;;;;;;;;;;5018312;28;20449;-80
2023/08/19 12:18:34;;;;;;;6.95;3.83;;;;;;;;;;5010268;28;20567;-81
2023/08/19 12:21:03;;;;;;;8.10;4.20;;;;;;;;;;5008947;28;20021;-82
2023/08/19 12:23:29;;;;;;;6.55;4.72;;;;;;;;;;5007428;28;20478;-86
2023/08/19 12:25:56;;;;;;;9.68;6.25;;;;;;;;;;5034650;28;20499;-87
2023/08/19 12:28:23;;;;;;;10.15;7.63;;;;;;;;;;5020517;28;20389;-87
2023/08/19 12:30:49;;;;;;;12.10;6.25;;;;;;;;;;5012851;28;20045;-88
2023/08/19 12:33:16;;;;;;;6.82;5.57;;;;;;;;;;5009236;28;20472;-89
2023/08/19 12:35:44;;;;;;;9.95;4.32;;;;;;;;;;5011827;28;20030;-88
2023/08/19 12:38:11;;;;;;;10.63;4.32;;;;;;;;;;5033786;28;20061;-88
2023/08/19 12:40:36;;;;;;;6.78;3.50;;;;;;;;;;5010829;28;20030;-87
2023/08/19 12:43:02;;;;;;;6.15;2.80;;;;;;;;;;5031260;28;20362;-88
2023/08/19 12:45:28;;;;;;;8.90;2.97;;;;;;;;;;5011510;28;20033;-87
2023/08/19 12:47:53;;;;;;;6.85;3.00;;;;;;;;;;5011426;28;20041;-88
2023/08/19 12:50:21;;;;;;;9.30;2.55;;;;;;;;;;5015498;28;20029;-86
2023/08/19 12:52:47;;;;;;;5.38;2.30;;;;;;;;;;5009178;28;20093;-87
2023/08/19 12:55:13;;;;;;;7.88;2.65;;;;;;;;;;5012736;28;20033;-87
2023/08/19 12:57:42;;;;;;;7.38;2.78;;;;;;;;;;5006176;28;20721;-86
2023/08/19 13:00:18;;;;;;;6.43;2.60;;;;;;;;;;5009984;28;20405;-87
2023/08/19 13:02:43;;;;;;;6.82;2.35;;;;;;;;;;5004203;28;20018;-84
2023/08/19 13:05:11;;;;;;;5.50;2.00;;;;;;;;;;5026003;28;20074;-86
2023/08/19 13:07:37;;;;;;;7.30;2.22;;;;;;;;;;5008993;28;20026;-87
2023/08/19 13:10:03;;;;;;;6.88;1.77;;;;;;;;;;5005544;28;20030;-86
2023/08/19 13:12:29;;;;;;;3.97;1.00;;;;;;;;;;5026195;28;20029;-88
2023/08/19 13:14:56;;;;;;;3.40;1.00;;;;;;;;;;5010640;28;20018;-87
2023/08/19 13:17:26;;;;;;;5.57;1.00;;;;;;;;;;5408916;22;20016;-85
2023/08/19 13:19:56;;;;;;;2.72;0.80;;;;;;;;;;5036692;28;20073;-85
2023/08/19 13:22:23;;;;;;;1.85;0.57;;;;;;;;;;5027304;28;20087;-80
2023/08/19 13:24:50;;;;;;;2.15;0.60;;;;;;;;;;5023247;28;20043;-79
2023/08/19 13:27:16;;;;;;;2.05;0.60;;;;;;;;;;5022823;28;20056;-79
2023/08/19 13:29:42;;;;;;;2.72;0.60;;;;;;;;;;5019119;28;20025;-79
2023/08/19 13:32:11;;;;;;;3.15;0.90;;;;;;;;;;5009368;28;20033;-81
2023/08/19 13:34:37;;;;;;;2.15;0.73;;;;;;;;;;5007091;28;20401;-81
2023/08/19 13:37:05;;;;;;;3.63;0.80;;;;;;;;;;5001780;28;20026;-81
2023/08/19 13:39:33;;;;;;;2.72;0.82;;;;;;;;;;5005982;28;20408;-80
2023/08/19 13:41:59;;;;;;;2.70;0.90;;;;;;;;;;5009337;28;20478;-81
2023/08/19 13:44:27;;;;;;;5.18;1.42;;;;;;;;;;5020084;28;20028;-81
2023/08/19 13:46:57;;;;;;;3.65;1.50;;;;;;;;;;5006644;28;20036;-80
2023/08/19 13:49:22;;;;;;;3.50;0.90;;;;;;;;;;5002039;28;20029;-80
2023/08/19 13:51:49;;;;;;;3.28;1.08;;;;;;;;;;5004297;28;20084;-80
2023/08/19 13:54:15;;;;;;;3.95;1.23;;;;;;;;;;5002816;28;20116;-81
2023/08/19 13:56:42;;;;;;;3.67;1.10;;;;;;;;;;5007151;28;20033;-81
2023/08/19 13:59:07;;;;;;;4.32;1.00;;;;;;;;;;5004739;28;20560;-81
2023/08/19 14:01:33;;;;;;;3.38;1.05;;;;;;;;;;4998805;28;20112;-80
2023/08/19 14:03:58;;;;;;;3.58;1.40;;;;;;;;;;5005567;28;20196;-80
2023/08/19 14:06:23;;;;;;;3.85;1.15;;;;;;;;;;5016082;28;20034;-81
2023/08/19 14:08:49;;;;;;;2.80;1.10;;;;;;;;;;5004008;28;20033;-81
2023/08/19 14:11:14;;;;;;;7.30;1.58;;;;;;;;;;4997217;28;20120;-80
2023/08/19 14:13:41;;;;;;;2.70;0.85;;;;;;;;;;5003211;28;20034;-79
2023/08/19 14:16:06;;;;;;;4.68;1.17;;;;;;;;;;5005117;28;20062;-81
2023/08/19 14:18:32;;;;;;;2.90;0.90;;;;;;;;;;4999574;28;20054;-80
2023/08/19 14:20:57;;;;;;;4.40;1.08;;;;;;;;;;5004885;28;20390;-79
2023/08/19 14:23:23;;;;;;;4.03;1.05;;;;;;;;;;5004224;28;20083;-80
2023/08/19 14:25:48;;;;;;;2.38;0.70;;;;;;;;;;5006052;28;20030;-81
2023/08/19 14:28:14;;;;;;;4.50;1.08;;;;;;;;;;5018482;28;20022;-80
2023/08/19 14:30:40;;;;;;;5.00;1.10;;;;;;;;;;5019537;28;20034;-81
2023/08/19 14:33:07;;;;;;;5.47;1.67;;;;;;;;;;5015255;28;20040;-86
2023/08/19 14:35:33;;;;;;;5.45;1.02;;;;;;;;;;5020917;28;20500;-85
2023/08/19 14:37:58;;;;;;;4.47;1.05;;;;;;;;;;5010225;28;20028;-86
2023/08/19 14:40:24;;;;;;;3.22;1.02;;;;;;;;;;5015315;28;20089;-84
2023/08/19 14:42:50;;;;;;;4.35;1.23;;;;;;;;;;5008127;28;20100;-81
2023/08/19 14:45:16;;;;;;;4.22;1.20;;;;;;;;;;5021864;28;20029;-81
2023/08/19 14:47:41;;;;;;;4.72;1.50;;;;;;;;;;5002238;28;20022;-82
2023/08/19 14:50:07;;;;;;;4.78;1.50;;;;;;;;;;5003010;28;20044;-83
2023/08/19 14:52:33;;;;;;;8.50;2.30;;;;;;;;;;5001568;28;20180;-82
2023/08/19 14:54:58;;;;;;;4.65;2.15;;;;;;;;;;4999700;28;20136;-82
2023/08/19 14:57:23;;;;;;;6.47;2.28;;;;;;;;;;5002495;28;20084;-81
2023/08/19 14:59:49;;;;;;;5.43;1.80;;;;;;;;;;5006879;28;20029;-83
2023/08/19 15:02:14;;;;;;;5.63;2.00;;;;;;;;;;5015115;28;20088;-81
2023/08/19 15:04:40;;;;;;;7.97;2.42;;;;;;;;;;5003007;28;20022;-83
2023/08/19 15:07:05;;;;;;;6.28;2.15;;;;;;;;;;5001513;28;20084;-83
2023/08/19 15:09:31;;;;;;;4.20;2.00;;;;;;;;;;5018703;28;20048;-82
2023/08/19 15:11:56;;;;;;;6.80;2.17;;;;;;;;;;5002409;28;20030;-82
2023/08/19 15:14:22;;;;;;;4.72;1.67;;;;;;;;;;5004714;28;20069;-85
2023/08/19 15:16:47;;;;;;;7.10;1.67;;;;;;;;;;5004036;28;20085;-82
2023/08/19 15:19:12;;;;;;;5.70;1.77;;;;;;;;;;5019115;28;20033;-83
2023/08/19 15:21:38;;;;;;;7.35;1.70;;;;;;;;;;5018712;28;20029;-82
2023/08/19 15:24:03;;;;;;;5.45;1.67;;;;;;;;;;5005064;28;20036;-83
2023/08/19 15:26:29;;;;;;;8.50;2.17;;;;;;;;;;5006841;28;20034;-82
2023/08/19 15:28:55;;;;;;;7.70;2.10;;;;;;;;;;5017309;28;20485;-82
2023/08/19 15:31:22;;;;;;;6.40;2.00;;;;;;;;;;5003659;28;20033;-83
2023/08/19 15:33:48;;;;;;;6.95;1.98;;;;;;;;;;5004943;28;20033;-81
2023/08/19 15:36:14;;;;;;;8.43;1.98;;;;;;;;;;5004187;28;20132;-82
2023/08/19 15:38:39;;;;;;;7.45;2.15;;;;;;;;;;5003925;28;20119;-80
2023/08/19 15:41:05;;;;;;;8.90;2.88;;;;;;;;;;5005798;28;20509;-82
2023/08/19 15:43:30;;;;;;;6.18;1.90;;;;;;;;;;5011278;28;20030;-86